Muzaffarabad Weather



Muzaffarabad's Current Weather

Temprature 34.61o clear sky

clear sky

Rain: 0 %

Min Temprature34.61o
Max Temprature34.61o
Humidity45
Wind Speed1.65 m/h
Sun Rise05:10:48
Sun Set19:14:07
Current Time: 24-Jul-2021 16:12:30
Lat/Lon: 34.37, 73.4711




Muzaffarabad's Geo Location



Muzaffarabad's Weather Forecast

Time Overall Temp Min Temp Max Temp Humidity Wind Speed Rain
24-Jul-2021 (Sat)
17:00:00 clear sky 33.970 33.970 33.970 47 1.36 m/h 0 %
20:00:00 clear sky 32.100 28.350 32.100 53 1.34 m/h 0 %
23:00:00 clear sky 29.400 27.120 29.400 61 1.95 m/h 0 %
25-Jul-2021 (Sun)
02:00:00 few clouds 26.320 26.320 26.320 68 1.92 m/h 0 %
05:00:00 scattered clouds 25.910 25.910 25.910 68 2.06 m/h 0 %
08:00:00 broken clouds 31.380 31.380 31.380 55 0.69 m/h 0 %
11:00:00 scattered clouds 34.990 34.990 34.990 44 1.93 m/h 0 %
14:00:00 scattered clouds 35.890 35.890 35.890 44 2.14 m/h 0 %
17:00:00 broken clouds 34.950 34.950 34.950 48 1.43 m/h 0 %
20:00:00 overcast clouds 30.280 30.280 30.280 62 1.4 m/h 0 %
23:00:00 broken clouds 28.730 28.730 28.730 67 1.77 m/h 0 %
26-Jul-2021 (Mon)
02:00:00 scattered clouds 28.500 28.500 28.500 66 1.39 m/h 0 %
05:00:00 broken clouds 27.240 27.240 27.240 70 1.62 m/h 0 %
08:00:00 broken clouds 31.740 31.740 31.740 59 1.29 m/h 0 %
11:00:00 scattered clouds 35.020 35.020 35.020 50 1.86 m/h 0 %
14:00:00 broken clouds 34.600 34.600 34.600 53 1.99 m/h 0 %
17:00:00 broken clouds 33.680 33.680 33.680 59 1.57 m/h 0 %
20:00:00 overcast clouds 30.520 30.520 30.520 71 0.58 m/h 0 %
23:00:00 light rain 30.260 30.260 30.260 71 1.19 m/h 11 %
27-Jul-2021 (Tue)
02:00:00 light rain 29.370 29.370 29.370 76 0.21 m/h 22 %
05:00:00 light rain 28.590 28.590 28.590 79 0.56 m/h 16 %
08:00:00 light rain 30.490 30.490 30.490 75 0.83 m/h 28 %
11:00:00 light rain 33.730 33.730 33.730 65 2.22 m/h 57 %
14:00:00 light rain 32.150 32.150 32.150 73 2.28 m/h 260 %
17:00:00 moderate rain 30.520 30.520 30.520 81 1.65 m/h 538 %
20:00:00 moderate rain 28.130 28.130 28.130 87 0.9 m/h 750 %
23:00:00 moderate rain 27.860 27.860 27.860 88 0.87 m/h 567 %
28-Jul-2021 (Wed)
02:00:00 heavy intensity rain 26.090 26.090 26.090 96 1.47 m/h 1,878 %
05:00:00 heavy intensity rain 24.180 24.180 24.180 97 0.61 m/h 4,086 %
08:00:00 moderate rain 25.390 25.390 25.390 90 0.86 m/h 312 %
11:00:00 light rain 28.710 28.710 28.710 78 2.64 m/h 31 %
14:00:00 light rain 26.570 26.570 26.570 91 1.64 m/h 221 %
17:00:00 light rain 25.610 25.610 25.610 97 1.2 m/h 199 %
20:00:00 moderate rain 24.930 24.930 24.930 98 1.31 m/h 480 %
23:00:00 light rain 24.680 24.680 24.680 94 0.69 m/h 73 %
29-Jul-2021 (Thu)
02:00:00 light rain 24.720 24.720 24.720 92 1.14 m/h 136 %
05:00:00 light rain 24.610 24.610 24.610 91 0.74 m/h 111 %
08:00:00 light rain 26.470 26.470 26.470 85 0.87 m/h 13 %
11:00:00 light rain 30.350 30.350 30.350 74 1.71 m/h 64 %
14:00:00 light rain 29.900 29.900 29.900 77 1.78 m/h 290 %

Famous Cities (60)